Tropical Cyclones
[Index]
Main Index Home Page Stock Weather Photos Extreme Storms Discussion Storm News and Storm Chasing Reports Tropical Cyclones / Hurricanes / Typhoons Weather Data and Links Wild Fires / Bushfires Weather Observation Techniques Weather Picture Catalogue Tornado Pictures and Reports Stock Video Footage and DVDs for sale
Season 2010-2011 Tropical Cyclone VINCE Track Map
Season 2010-2011 Summaries: [BoM-AU] [JTWC-AU] [JTWC-SIO] [JTWC-SPAC] [JTWC-SH]
<<- Previous TC | JTWC 2010-2011 Season | Next TC ->>

click for intensity scale information  Lat/long Grid: Show Hide

 Date Labels: Show Hide

Joint Typhoon Warning Centre Cyclone Data

Name: VINCE

10 Jan 2011 06:00 UTC to 16 Jan 2011 12:00 UTC

    date/time    lat    long     hPa   cat  kts
2011-01-10 06   15.1   111.2    1007         20          
2011-01-10 12   15.3   110.3    1007         20          
2011-01-10 18   15.3   109.4     999         25          
2011-01-11 00   15.1   108.5    1004         25          
2011-01-11 06   14.9   107.9    1000         30          
2011-01-11 12   14.9   107.7    1000         30          
2011-01-11 18   14.9   107.5    1000         30          
2011-01-12 00   15.0   107.5    1000         30          
2011-01-12 06   15.0   107.6     996         35          
2011-01-12 12   15.3   107.8     993    1    40          
2011-01-12 18   15.7   107.9     993    1    40          
2011-01-13 00   15.9   108.2     989    1    45          
2011-01-13 06   16.1   109.3     989    1    45          
2011-01-13 12   15.9   110.5     989    1    45          
2011-01-13 18   16.1   111.6     989    1    45          
2011-01-14 00   16.2   112.6     989    1    45          
2011-01-14 06   16.2   113.7     993    1    40          
2011-01-14 12   16.2   114.3     996         35          
2011-01-14 18   16.0   114.5     996         35          
2011-01-15 00   15.8   114.5     996         35          
2011-01-15 06   15.7   114.3     996         35          
2011-01-15 12   15.7   114.0     996         35          
2011-01-15 18   15.9   113.6    1000         30          
2011-01-16 00   16.1   113.2    1000         30          
2011-01-16 06   16.3   112.7    1000         30          
2011-01-16 12   16.5   112.1    1004         25          
Winds are 1-min average.

Tropical cyclone tracks developed by Michael Bath using data from the Joint Typhoon Warning Centre Best Tracks and Google Maps.


[Australian Severe Weather index] [Copyright Notice] [Email Contacts] [Search This Site] [Privacy Policy]
Document: tropical_cyclone_vince.htm Updated: 28 June 2017